• Join FlightAware (Why Join?)
  • Login
  • US Flag 
12:33AM EDT


 

Airport Tracker/Info


-or-


 

Live Flight TrackerFlight Track Log ✈ SWA720 ✈ 20-Apr-2013 ✈ KPHX - KSAN

Flight Track Log - Related Links

Times and Time Zones

All times are in EDT time to prevent confusion due to time zone crossing. See the SWA720 flight status page for this flight to view local times or setup timezone preferences in your user account.

Time Position Orientation Groundspeed Altitude Reporting Facility
EDT Latitude Longitude Course Direction KTS MPH feet Rate Location/Type
11:35PM 33.4333 -112.0333 239° Southwest 156 180 2,100  Level Phoenix TRACON
11:35PM 33.4167 -112.0667 239° Southwest 196 226 3,100 1,800 Climbing Phoenix TRACON
11:36PM 33.4050 -112.1250 257° West 214 246 5,000 2,160 Climbing Albuquerque Center
11:37PM 33.3581 -112.1919 230° Southwest 266 306 7,400 2,400 Climbing Albuquerque Center
11:38PM 33.3033 -112.2583 225° Southwest 279 321 9,900 1,680 Climbing Albuquerque Center
11:39PM 33.2392 -112.3353 225° Southwest 330 380 10,800 1,560 Climbing Albuquerque Center
11:40PM 33.1672 -112.4217 225° Southwest 362 417 13,100 2,280 Climbing Albuquerque Center
11:42PM 33.0850 -112.5200 225° Southwest 373 429 15,400 1,980 Climbing Albuquerque Center
11:43PM 33.0108 -112.6083 225° Southwest 377 434 17,200 1,620 Climbing Albuquerque Center
11:44PM 32.9506 -112.7119 235° Southwest 387 445 18,700 1,500 Climbing Albuquerque Center
11:45PM 32.9344 -112.8356 261° West 384 442 20,300 1,860 Climbing Albuquerque Center
11:46PM 32.9178 -112.9622 261° West 388 447 22,500 1,980 Climbing Albuquerque Center
11:47PM 32.9008 -113.0906 261° West 393 452 24,400 1,680 Climbing Albuquerque Center
11:48PM 32.8944 -113.2231 267° West 401 461 25,900 1,680 Climbing Albuquerque Center
11:49PM 32.8867 -113.3572 266° West 408 470 27,900 1,980 Climbing Albuquerque Center
11:50PM 32.8794 -113.4889 266° West 405 466 30,000 1,800 Climbing Albuquerque Center
11:51PM 32.8719 -113.6147 266° West 390 449 31,600 960 Climbing Albuquerque Center
11:52PM 32.8661 -113.7428 267° West 389 448 32,000 180 Climbing Albuquerque Center
11:53PM 32.8622 -113.8975 268° West 391 450 32,000  Level Albuquerque Center
11:54PM 32.8581 -114.0281 268° West 395 455 32,000  Level Albuquerque Center
11:55PM 32.8533 -114.1575 268° West 393 452 32,000  Level Albuquerque Center
11:55PM 32.8522 -114.1989 268° West 392 451 32,000 -660 Level Los Angeles Center
11:56PM 32.8472 -114.3289 267° West 394 453 31,100 -1,020 Descending Los Angeles Center
11:57PM 32.8436 -114.4597 268° West 395 455 30,000 -1,020 Descending Los Angeles Center
11:58PM 32.8386 -114.5928 267° West 403 464 29,100 -900 Descending Los Angeles Center
11:59PM 32.8339 -114.7256 268° West 402 463 28,200 -960 Descending Los Angeles Center
12:00AM 32.8286 -114.8614 267° West 407 468 27,200 -960 Descending Los Angeles Center
12:01AM 32.8250 -114.9950 268° West 406 467 26,300 -1,080 Descending Los Angeles Center
12:02AM 32.8169 -115.1586 267° West 411 473 25,100 -1,080 Descending Los Angeles Center
12:03AM 32.8083 -115.2950 266° West 414 476 24,200 -960 Descending Los Angeles Center
12:04AM 32.8008 -115.4303 266° West 412 474 23,200 -1,020 Descending Los Angeles Center
12:05AM 32.7925 -115.5683 266° West 418 481 22,200 -1,020 Descending Los Angeles Center
12:06AM 32.7844 -115.7056 266° West 416 479 21,200 -1,020 Descending Los Angeles Center
12:07AM 32.7769 -115.8389 266° West 406 467 20,200 -1,080 Descending Los Angeles Center
12:08AM 32.7689 -115.9706 266° West 400 460 19,100 -1,680 Descending Los Angeles Center
12:09AM 32.7611 -116.0975 266° West 385 443 16,900 -2,220 Descending Los Angeles Center
12:10AM 32.7533 -116.2164 266° West 363 418 14,700 -2,100 Descending Los Angeles Center
12:11AM 32.7464 -116.3319 266° West 350 403 12,700 -1,980 Descending Los Angeles Center
12:12AM 32.7392 -116.4442 266° West 338 389 10,700 -1,440 Descending Los Angeles Center
12:13AM 32.7256 -116.5481 261° West 317 365 9,800 -1,200 Descending Los Angeles Center
12:14AM 32.7125 -116.6422 261° West 294 338 8,300 -1,440 Descending Los Angeles Center
12:15AM 32.7006 -116.7339 261° West 286 329 6,900 -1,140 Descending Los Angeles Center
12:16AM 32.6875 -116.8222 260° West 276 318 6,000 -1,080 Descending Los Angeles Center
12:17AM 32.6833 -116.9167 267° West 250 288 4,800 -1,080 Descending Southern California TRACON
12:18AM 32.6833 -116.9833 270° West 223 257 3,900 -1,200 Descending Southern California TRACON
12:19AM 32.7000 -117.0500 287° West 203 234 2,500 -1,080 Descending Southern California TRACON
12:21AM 32.7167 -117.1500 281° West 138 159 700 -780 Descending Southern California TRACON
12:22AM 32.7361 -117.1956 297° West 142 163 100 -540 Descending Los Angeles Center
12:24AM 32.7333 -117.1833 North  Level FlightAware Approximate
12:31AM 32.7336 -117.1897 North  Level Estimated